createdAt,value
2023-01-07T00:00:27.624Z,-28.3
2023-01-07T00:02:29.455Z,-28.4
2023-01-07T00:04:31.277Z,-28.4
2023-01-07T00:06:33.042Z,-28.4
2023-01-07T00:08:34.721Z,-28.4
2023-01-07T00:10:36.001Z,-28.3
2023-01-07T00:12:37.423Z,-28.3
2023-01-07T00:14:39.321Z,-28.5
2023-01-07T00:16:41.107Z,-28.5
2023-01-07T00:18:42.311Z,-28.5
2023-01-07T00:22:45.856Z,-28.5
2023-01-07T00:24:46.815Z,-28.3
2023-01-07T00:26:48.612Z,-28.3
2023-01-07T00:28:49.718Z,-28.3
2023-01-07T00:30:50.665Z,-28.3
2023-01-07T00:32:51.778Z,-28.3
2023-01-07T00:38:56.179Z,-28.3
2023-01-07T00:40:58.003Z,-28.4
2023-01-07T00:42:59.848Z,-28.4
2023-01-07T00:45:00.876Z,-28.3
2023-01-07T00:47:02.018Z,-28.3
2023-01-07T00:49:03.081Z,-28.4
2023-01-07T00:51:04.599Z,-28
2023-01-07T00:53:05.712Z,-28.4
2023-01-07T00:55:07.312Z,-28.4
2023-01-07T00:59:10.239Z,-27.8
2023-01-07T01:01:12.176Z,-28.4
2023-01-07T01:03:13.842Z,-28.5
2023-01-07T01:05:15.563Z,-28.3
2023-01-07T01:07:16.912Z,-28.3
2023-01-07T01:09:18.354Z,-28.5
2023-01-07T01:11:19.726Z,-28.3
2023-01-07T01:13:21.247Z,-28.3
2023-01-07T01:15:22.861Z,-28.2
2023-01-07T01:21:26.938Z,-28.4
2023-01-07T01:23:28.379Z,-28.3
2023-01-07T01:25:29.964Z,-28.5
2023-01-07T01:27:31.225Z,-28.5
2023-01-07T01:29:32.260Z,-28.4
2023-01-07T01:31:33.726Z,-28.1
2023-01-07T01:35:37.367Z,-28.4
2023-01-07T01:37:39.160Z,-28.3
2023-01-07T01:39:40.128Z,-28.3
2023-01-07T01:41:41.206Z,-28.5
2023-01-07T01:47:45.144Z,-28.2
2023-01-07T01:49:46.520Z,-28.4
2023-01-07T01:51:48.320Z,-28.4
2023-01-07T01:53:50.170Z,-28
2023-01-07T01:55:51.557Z,-28.2
2023-01-07T01:57:52.922Z,-28.6
2023-01-07T01:59:54.186Z,-28.4
2023-01-07T02:01:55.301Z,-28.5
2023-01-07T02:03:56.479Z,-28.3
2023-01-07T02:05:58.109Z,-28.4
2023-01-07T02:07:59.216Z,-28.5
2023-01-07T02:10:00.707Z,-28.4
2023-01-07T02:12:02.430Z,-28.3
2023-01-07T02:14:03.873Z,-28.2
2023-01-07T02:16:05.586Z,-28.4
2023-01-07T02:18:07.127Z,-28.2
2023-01-07T02:20:08.136Z,-28.5
2023-01-07T02:22:09.963Z,-28.2
2023-01-07T02:24:11.810Z,-28.3
2023-01-07T02:26:13.313Z,-28.3
2023-01-07T02:28:14.888Z,-28.5
2023-01-07T02:30:16.053Z,-28.4
2023-01-07T02:34:19.208Z,-28.5
2023-01-07T02:36:20.634Z,-28.3
2023-01-07T02:38:21.673Z,-28.4
2023-01-07T02:40:23.530Z,-28.5
2023-01-07T02:46:28.801Z,-28.4
2023-01-07T02:48:30.254Z,-28.3
2023-01-07T02:50:31.771Z,-28.5
2023-01-07T02:52:32.845Z,-28.3
2023-01-07T02:54:33.836Z,-28.5
2023-01-07T02:56:35.132Z,-28.5
2023-01-07T02:58:36.170Z,-28.3
2023-01-07T03:00:38.036Z,-28.4
2023-01-07T03:02:39.502Z,-28.2
2023-01-07T03:04:41.008Z,-28.3
2023-01-07T03:06:42.503Z,-28.5
2023-01-07T03:08:44.230Z,-28.4
2023-01-07T03:10:45.909Z,-28.2
2023-01-07T03:12:46.971Z,-28.2
2023-01-07T03:14:48.025Z,-28.4
2023-01-07T03:16:49.442Z,-28.3
2023-01-07T03:18:50.770Z,-28.3
2023-01-07T03:20:52.055Z,-28.4
2023-01-07T03:22:53.446Z,-28.6
2023-01-07T03:24:54.925Z,-28.4
2023-01-07T03:26:56.076Z,-28.4
2023-01-07T03:28:57.688Z,-28.5
2023-01-07T03:30:59.327Z,-28.4
2023-01-07T03:33:01.107Z,-28.2
2023-01-07T03:35:02.095Z,-28.4
2023-01-07T03:37:03.191Z,-28.1
2023-01-07T03:39:04.545Z,-28.2
2023-01-07T03:45:09.056Z,-28.4
2023-01-07T03:47:10.720Z,-28.3
2023-01-07T03:49:12.051Z,-28.2
2023-01-07T03:51:13.337Z,-28.5
2023-01-07T03:53:15.124Z,-28
2023-01-07T03:55:16.099Z,-28.4
2023-01-07T03:59:19.257Z,-28.4
2023-01-07T04:01:20.698Z,-28.6
2023-01-07T04:03:21.644Z,-28.5
2023-01-07T04:05:23.322Z,-28.4
2023-01-07T04:09:26.297Z,-28.3
2023-01-07T04:11:28.053Z,-28.4
2023-01-07T04:15:30.817Z,-28.3
2023-01-07T04:17:32.689Z,-28.3
2023-01-07T04:19:34.415Z,-28.2
2023-01-07T04:21:36.153Z,-28.2
2023-01-07T04:25:39.499Z,-28.2
2023-01-07T04:27:41.108Z,-28.6
2023-01-07T04:29:42.254Z,-28.2
2023-01-07T04:31:43.600Z,-28.2
2023-01-07T04:35:45.794Z,-28.5
2023-01-07T04:37:47.678Z,-28.5
2023-01-07T04:41:50.206Z,-28.2
2023-01-07T04:43:51.605Z,-28.1
2023-01-07T04:45:53.014Z,-28.3
2023-01-07T04:47:54.054Z,-28.4
2023-01-07T04:49:55.763Z,-28.3
2023-01-07T04:53:59.350Z,-28.4
2023-01-07T04:56:01.246Z,-28.3
2023-01-07T04:58:02.758Z,-28.1
2023-01-07T05:00:03.843Z,-28.3
2023-01-07T05:02:05.105Z,-28.4
2023-01-07T05:04:06.044Z,-28.4
2023-01-07T05:06:07.754Z,-28.4
2023-01-07T05:08:09.365Z,-28.4
2023-01-07T05:10:10.845Z,-28
2023-01-07T05:12:12.213Z,-28.3
2023-01-07T05:14:13.439Z,-28.4
2023-01-07T05:16:15.297Z,-28.4
2023-01-07T05:18:16.685Z,-28.2
2023-01-07T05:20:18.415Z,-28.4
2023-01-07T05:22:19.694Z,-28.2
2023-01-07T05:24:21.435Z,-28.5
2023-01-07T05:26:22.932Z,-28.5
2023-01-07T05:30:26.450Z,-28.4
2023-01-07T05:32:27.373Z,-28.4
2023-01-07T05:34:28.996Z,-28
2023-01-07T05:36:30.483Z,-28.4
2023-01-07T05:40:33.239Z,-28.3
2023-01-07T05:42:34.311Z,-28.2
2023-01-07T05:44:36.116Z,-27.9
2023-01-07T05:46:37.108Z,-28.3
2023-01-07T05:50:40.021Z,-28.6
2023-01-07T05:52:41.896Z,-28.3
2023-01-07T05:54:42.834Z,-28.4
2023-01-07T05:56:44.081Z,-28.2
2023-01-07T05:58:45.477Z,-28.2
2023-01-07T06:00:46.797Z,-28.4
2023-01-07T06:02:47.891Z,-28.5
2023-01-07T06:04:49.046Z,-28.3
2023-01-07T06:07:34.428Z,-28.3
2023-01-07T06:09:35.525Z,-28.3
2023-01-07T06:11:37.325Z,-28.4
2023-01-07T06:13:38.735Z,-28.4
2023-01-07T06:19:42.680Z,-28.5
2023-01-07T06:21:44.498Z,-28.2
2023-01-07T06:23:45.870Z,-28.3
2023-01-07T06:25:46.857Z,-28.4
2023-01-07T06:27:48.274Z,-28.2
2023-01-07T06:29:49.940Z,-28.3
2023-01-07T06:33:53.144Z,-28.2
2023-01-07T06:35:54.884Z,-28.4
2023-01-07T06:37:56.778Z,-28.2
2023-01-07T06:39:58.700Z,-28.3
2023-01-07T06:41:59.950Z,-28.2
2023-01-07T06:44:01.781Z,-28.4
2023-01-07T06:46:03.549Z,-28.4
2023-01-07T06:48:04.510Z,-28.3
2023-01-07T06:50:05.744Z,-28.4
2023-01-07T06:52:07.252Z,-28.2
2023-01-07T06:54:08.795Z,-28.4
2023-01-07T06:56:10.704Z,-28.5
2023-01-07T06:58:11.988Z,-28.5
2023-01-07T07:02:15.256Z,-28.2
2023-01-07T07:04:17.097Z,-28.4
2023-01-07T07:06:18.547Z,-28.3
2023-01-07T07:08:20.312Z,-28.4
2023-01-07T07:10:21.413Z,-28.3
2023-01-07T07:12:22.912Z,-28.4
2023-01-07T07:16:26.088Z,-28.4
2023-01-07T07:18:27.740Z,-28.5
2023-01-07T07:20:29.269Z,-28.3
2023-01-07T07:22:31.130Z,-28.5
2023-01-07T07:24:32.776Z,-28.3
2023-01-07T07:26:34.426Z,-28.4
2023-01-07T07:28:35.812Z,-28.4
2023-01-07T07:30:45.408Z,-28.2
2023-01-07T07:32:38.541Z,-28.5
2023-01-07T07:34:40.162Z,-28.5
2023-01-07T07:36:42.047Z,-28.4
2023-01-07T07:38:43.913Z,-28.2
2023-01-07T07:40:45.664Z,-28.5
2023-01-07T07:43:09.931Z,-28.5
2023-01-07T07:44:48.032Z,-28.2
2023-01-07T07:46:49.848Z,-28.4
2023-01-07T07:48:51.376Z,-28.3
2023-01-07T07:50:52.804Z,-28.4
2023-01-07T07:52:53.689Z,-28.3
2023-01-07T07:54:55.381Z,-28.4
2023-01-07T07:58:58.865Z,-28.5
2023-01-07T08:01:00.463Z,-28
2023-01-07T08:03:01.755Z,-28.3
2023-01-07T08:05:03.072Z,-28.3
2023-01-07T08:07:04.766Z,-28.4
2023-01-07T08:09:05.967Z,-28.4
2023-01-07T08:11:07.403Z,-28.4
2023-01-07T08:13:09.066Z,-28.2
2023-01-07T08:15:10.052Z,-28.3
2023-01-07T08:17:11.234Z,-28.6
2023-01-07T08:21:13.677Z,-28.5
2023-01-07T08:23:15.233Z,-28.2
2023-01-07T08:25:16.293Z,-28.5
2023-01-07T08:27:17.549Z,-28.5
2023-01-07T08:31:20.791Z,-28.3
2023-01-07T08:33:22.437Z,-28.1
2023-01-07T08:35:23.948Z,-28.2
2023-01-07T08:37:25.010Z,-28.2
2023-01-07T08:41:28.042Z,-28.2
2023-01-07T08:43:29.161Z,-28.4
2023-01-07T08:45:30.992Z,-28.5
2023-01-07T08:47:32.031Z,-28.3
2023-01-07T08:49:33.332Z,-28.5
2023-01-07T08:51:34.646Z,-28.2
2023-01-07T08:53:35.762Z,-28.4
2023-01-07T08:57:39.413Z,-28.4
2023-01-07T08:59:41.053Z,-28.6
2023-01-07T09:01:42.283Z,-28.5
2023-01-07T09:03:43.193Z,-28.3
2023-01-07T09:09:48.143Z,-28.3
2023-01-07T09:11:49.974Z,-28.3
2023-01-07T09:13:51.391Z,-28.3
2023-01-07T09:15:52.618Z,-28.3
2023-01-07T09:17:53.889Z,-28.5
2023-01-07T09:19:55.137Z,-28.4
2023-01-07T09:21:56.347Z,-28.3
2023-01-07T09:23:58.011Z,-28.2
2023-01-07T09:25:59.910Z,-28.2
2023-01-07T09:28:01.293Z,-28.3
2023-01-07T09:30:02.883Z,-28.6
2023-01-07T09:34:06.059Z,-28.2
2023-01-07T09:36:07.444Z,-28.4
2023-01-07T09:38:08.965Z,-28.4
2023-01-07T09:40:10.660Z,-28.5
2023-01-07T09:42:12.004Z,-28.7
2023-01-07T09:44:13.793Z,-28.3
2023-01-07T09:46:15.395Z,-27.7
2023-01-07T09:52:19.962Z,-27.5
2023-01-07T09:54:21.872Z,-27.6
2023-01-07T09:56:23.493Z,-27.4
2023-01-07T09:58:25.370Z,-27.3
2023-01-07T10:00:27.316Z,-22.9
2023-01-07T10:02:28.858Z,-22.2
2023-01-07T10:04:30.020Z,-22.8
2023-01-07T10:06:42.566Z,-27.6
2023-01-07T10:08:32.706Z,-28.4
2023-01-07T10:10:34.520Z,-28.3
2023-01-07T10:12:36.105Z,-28.4
2023-01-07T10:14:37.836Z,-28.5
2023-01-07T10:16:39.248Z,-27.9
2023-01-07T10:18:40.761Z,-28.2
2023-01-07T10:20:42.675Z,-28.4
2023-01-07T10:22:44.184Z,-28.4
2023-01-07T10:24:45.196Z,-28.1
2023-01-07T10:26:46.493Z,-28.5
2023-01-07T10:28:48.019Z,-28.4
2023-01-07T10:30:48.959Z,-28.3
2023-01-07T10:32:50.060Z,-28.3
2023-01-07T10:34:51.231Z,-28.3
2023-01-07T10:38:53.516Z,-28.4
2023-01-07T10:40:54.908Z,-28.3
2023-01-07T10:42:56.575Z,-28.3
2023-01-07T10:44:58.140Z,-28.3
2023-01-07T10:51:02.678Z,-28.5
2023-01-07T10:53:04.540Z,-28.3
2023-01-07T10:55:06.406Z,-28.3
2023-01-07T10:57:07.391Z,-28.7
2023-01-07T10:59:08.726Z,-28.3
2023-01-07T11:01:10.322Z,-28.2
2023-01-07T11:03:11.901Z,-28.2
2023-01-07T11:05:14.921Z,-28.4
2023-01-07T11:07:14.719Z,-28.2
2023-01-07T11:09:15.850Z,-28.3
2023-01-07T11:11:17.318Z,-28.2
2023-01-07T11:13:18.560Z,-28.3
2023-01-07T11:15:20.048Z,-28.4
2023-01-07T11:17:21.460Z,-28
2023-01-07T11:19:22.832Z,-27.9
2023-01-07T11:21:42.373Z,-24
2023-01-07T11:23:25.151Z,-26.9
2023-01-07T11:25:26.916Z,-21.2
2023-01-07T11:27:37.229Z,-14.7
2023-01-07T11:29:29.177Z,-10.7
2023-01-07T11:31:30.814Z,-6
2023-01-07T11:34:00.993Z,0.1
2023-01-07T11:35:33.764Z,-1.3
2023-01-07T11:37:35.436Z,-0.7
2023-01-07T11:39:36.655Z,-1.4
2023-01-07T11:41:37.488Z,-0.1
2023-01-07T11:43:38.923Z,-1
2023-01-07T11:49:43.070Z,-9.1
2023-01-07T11:51:44.301Z,-9.5
2023-01-07T11:53:45.310Z,-11.3
2023-01-07T11:55:46.601Z,-10.5
2023-01-07T11:57:47.983Z,-14.8
2023-01-07T11:59:49.700Z,-14.1
2023-01-07T12:03:52.226Z,-12.4
2023-01-07T12:05:53.607Z,-12.3
2023-01-07T12:07:54.596Z,-10.4
2023-01-07T12:09:55.937Z,-8.1
2023-01-07T12:16:00.000Z,11.4
2023-01-07T12:18:01.441Z,46.6
2023-01-07T12:20:02.450Z,82.4
2023-01-07T12:22:04.109Z,82.4
2023-01-07T12:24:05.212Z,82.3
2023-01-07T12:26:06.515Z,82.2
2023-01-07T12:28:08.359Z,42.3
2023-01-07T12:30:09.784Z,28.1
2023-01-07T12:32:10.968Z,27.2
2023-01-07T12:34:12.542Z,82.6
2023-01-07T12:36:14.194Z,21.5
2023-01-07T12:38:16.009Z,3.6
2023-01-07T12:40:17.896Z,-5.9
2023-01-07T12:42:19.078Z,-2.7
2023-01-07T12:44:20.674Z,10.4
2023-01-07T12:46:21.674Z,5.9
2023-01-07T12:48:22.612Z,-7.3
2023-01-07T12:50:24.185Z,-6.4
2023-01-07T12:53:09.560Z,8.8
2023-01-07T12:55:10.471Z,16.2
2023-01-07T12:57:11.537Z,41.4
2023-01-07T12:59:45.343Z,82.1
2023-01-07T13:01:14.790Z,82.1
2023-01-07T13:03:15.769Z,82.1
2023-01-07T13:05:17.544Z,82.1
2023-01-07T13:07:19.082Z,82.5
2023-01-07T13:09:20.590Z,13.5
2023-01-07T13:11:21.798Z,17.7
2023-01-07T13:13:22.766Z,17.1
2023-01-07T13:15:24.111Z,82.4
2023-01-07T13:17:25.910Z,18.9
2023-01-07T13:19:27.146Z,16.29
2023-01-07T13:25:31.991Z,16.1
2023-01-07T13:27:33.031Z,11.8
2023-01-07T13:29:34.316Z,0.3
2023-01-07T13:31:35.448Z,4.3
2023-01-07T13:33:36.587Z,4.1
2023-01-07T13:35:38.175Z,66.9
2023-01-07T13:39:40.826Z,-3.5
2023-01-07T13:41:42.307Z,1.4
2023-01-07T13:43:43.531Z,5
2023-01-07T13:45:45.358Z,4.4
2023-01-07T13:49:56.599Z,82.2
2023-01-07T13:51:50.135Z,26.5
2023-01-07T13:53:51.229Z,6.1
2023-01-07T13:55:52.520Z,-3.4
2023-01-07T13:57:54.042Z,-1
2023-01-07T13:59:55.276Z,61.7
2023-01-07T14:01:56.444Z,82.3
2023-01-07T14:03:57.544Z,82
2023-01-07T14:05:59.044Z,82.1
2023-01-07T14:08:00.533Z,82
2023-01-07T14:10:01.937Z,82.4
2023-01-07T14:12:03.174Z,82.3
2023-01-07T14:14:04.271Z,82.1
2023-01-07T14:16:05.801Z,81.9
2023-01-07T14:18:07.572Z,81.69
2023-01-07T14:20:08.819Z,82
2023-01-07T14:22:10.321Z,81.9
2023-01-07T14:24:12.023Z,81.6
2023-01-07T14:26:13.373Z,81.9
2023-01-07T14:28:14.302Z,81.69
2023-01-07T14:30:16.539Z,81.8
2023-01-07T14:32:16.665Z,81.4
2023-01-07T14:34:18.157Z,82
2023-01-07T14:38:20.363Z,-13.8
2023-01-07T14:40:21.908Z,-21.7
2023-01-07T14:42:23.739Z,-26.2
2023-01-07T14:44:25.099Z,-27.8
2023-01-07T14:50:29.017Z,-28.9
2023-01-07T14:52:30.665Z,-28.9
2023-01-07T14:54:32.542Z,-28.7
2023-01-07T14:56:34.327Z,-28.7
2023-01-07T14:58:35.936Z,-28.4
2023-01-07T15:00:37.815Z,-28.5
2023-01-07T15:02:39.248Z,-28.4
2023-01-07T15:04:40.124Z,-28.6
2023-01-07T15:06:41.337Z,-28.3
2023-01-07T15:08:42.308Z,-28.2
2023-01-07T15:10:43.800Z,-28.4
2023-01-07T15:12:44.731Z,-28.5
2023-01-07T15:14:46.325Z,-28.4
2023-01-07T15:16:47.901Z,-28.5
2023-01-07T15:18:49.602Z,-28.3
2023-01-07T15:20:50.580Z,-28.6
2023-01-07T15:22:52.342Z,-28.3
2023-01-07T15:24:53.420Z,-28.5
2023-01-07T15:26:54.649Z,-28.2
2023-01-07T15:28:56.313Z,-28.3
2023-01-07T15:30:57.539Z,-28.3
2023-01-07T15:32:59.436Z,-28.2
2023-01-07T15:35:01.143Z,-28.5
2023-01-07T15:37:02.282Z,-28.4
2023-01-07T15:39:03.687Z,-28.2
2023-01-07T15:41:04.686Z,-28.3
2023-01-07T15:43:06.243Z,-28.2
2023-01-07T15:49:10.756Z,-28.2
2023-01-07T15:51:12.684Z,-28.2
2023-01-07T15:53:14.118Z,-28.4
2023-01-07T15:55:15.786Z,-28.3
2023-01-07T15:57:16.737Z,-28.4
2023-01-07T15:59:18.467Z,-28.4
2023-01-07T16:01:20.184Z,-28.3
2023-01-07T16:03:21.157Z,-28.6
2023-01-07T16:05:22.950Z,-28.2
2023-01-07T16:09:25.906Z,-28.7
2023-01-07T16:11:27.743Z,-28.4
2023-01-07T16:13:28.737Z,-28.2
2023-01-07T16:15:30.065Z,-28.2
2023-01-07T16:19:32.969Z,-28.5
2023-01-07T16:21:34.123Z,-28.4
2023-01-07T16:23:35.610Z,-28.2
2023-01-07T16:25:37.479Z,-28.7
2023-01-07T16:29:40.396Z,-28
2023-01-07T16:31:41.556Z,-28.4
2023-01-07T16:33:42.995Z,-28.2
2023-01-07T16:35:44.195Z,-28.3
2023-01-07T16:37:46.129Z,-28.5
2023-01-07T16:39:47.234Z,-28.2
2023-01-07T16:41:48.597Z,-28.5
2023-01-07T16:45:51.731Z,-28.5
2023-01-07T16:47:52.996Z,-28.5
2023-01-07T16:49:54.733Z,-28.3
2023-01-07T16:51:55.713Z,-28.2
2023-01-07T16:53:57.045Z,-28.4
2023-01-07T16:57:59.873Z,-28.6
2023-01-07T17:02:02.515Z,-28.4
2023-01-07T17:04:04.182Z,-28.3
2023-01-07T17:06:05.189Z,-28.3
2023-01-07T17:08:06.706Z,-28.2
2023-01-07T17:14:10.852Z,-28.4
2023-01-07T17:16:12.230Z,-28.2
2023-01-07T17:18:14.116Z,-28.5
2023-01-07T17:20:15.995Z,-28.3
2023-01-07T17:22:17.515Z,-28.2
2023-01-07T17:24:19.341Z,-28.6
2023-01-07T17:26:21.152Z,-28.2
2023-01-07T17:28:24.045Z,-28.3
2023-01-07T17:30:23.452Z,-28.5
2023-01-07T17:32:24.813Z,-28.4
2023-01-07T17:34:26.325Z,-28.2
2023-01-07T17:36:28.030Z,-28.4
2023-01-07T17:38:29.189Z,-28.4
2023-01-07T17:40:30.233Z,-28.3
2023-01-07T17:42:31.940Z,-28.4
2023-01-07T17:44:33.559Z,-28.3
2023-01-07T17:46:35.544Z,-28.3
2023-01-07T17:50:37.950Z,-28.4
2023-01-07T17:52:39.293Z,-28.3
2023-01-07T17:54:40.509Z,-28.4
2023-01-07T17:56:42.020Z,-28.5
2023-01-07T17:58:43.400Z,-28.4
2023-01-07T18:00:45.113Z,-28.4
2023-01-07T18:02:46.934Z,-28.4
2023-01-07T18:04:48.308Z,-28.5
2023-01-07T18:06:49.446Z,-28.4
2023-01-07T18:08:50.737Z,-28.2
2023-01-07T18:10:52.475Z,-28.3
2023-01-07T18:12:53.761Z,-28.3
2023-01-07T18:14:55.525Z,-28.2
2023-01-07T18:16:56.590Z,-28.4
2023-01-07T18:18:57.699Z,-28.5
2023-01-07T18:20:59.192Z,-28.4
2023-01-07T18:23:00.443Z,-28.2
2023-01-07T18:25:01.512Z,-28.3
2023-01-07T18:27:03.534Z,-28.3
2023-01-07T18:29:04.838Z,-28.2
2023-01-07T18:33:07.724Z,-28.5
2023-01-07T18:35:09.386Z,-28.4
2023-01-07T18:37:10.620Z,-28.3
2023-01-07T18:39:11.950Z,-28.5
2023-01-07T18:41:13.643Z,-28.4
2023-01-07T18:43:15.377Z,-28.3
2023-01-07T18:45:16.829Z,-28.5
2023-01-07T18:47:18.613Z,-28.2
2023-01-07T18:49:19.618Z,-28.1
2023-01-07T18:55:24.794Z,-28.4
2023-01-07T18:57:26.245Z,-28
2023-01-07T18:59:27.761Z,-28.4
2023-01-07T19:01:29.362Z,-28.4
2023-01-07T19:03:30.371Z,-28.4
2023-01-07T19:05:32.276Z,-28.2
2023-01-07T19:09:35.109Z,-28.5
2023-01-07T19:11:37.071Z,-28.3
2023-01-07T19:13:38.062Z,-28.6
2023-01-07T19:15:39.685Z,-28.3
2023-01-07T19:19:48.200Z,-28.3
2023-01-07T19:21:44.313Z,-28.3
2023-01-07T19:23:45.602Z,-28.3
2023-01-07T19:25:47.145Z,-28.5
2023-01-07T19:27:48.664Z,-28.5
2023-01-07T19:29:50.180Z,-28.6
2023-01-07T19:31:51.651Z,-28.4
2023-01-07T19:35:54.745Z,-28.4
2023-01-07T19:38:49.349Z,-28.5
2023-01-07T19:40:42.281Z,-28.4
2023-01-07T19:42:43.294Z,-27.9
2023-01-07T19:44:45.134Z,-28.2
2023-01-07T19:46:46.472Z,-28
2023-01-07T19:48:48.363Z,-28.5
2023-01-07T19:50:50.152Z,-28.6
2023-01-07T19:52:51.178Z,-28.3
2023-01-07T19:54:52.312Z,-28.3
2023-01-07T19:58:55.816Z,-28.4
2023-01-07T20:02:58.104Z,-28.4
2023-01-07T20:04:59.793Z,-28.2
2023-01-07T20:07:01.389Z,-28.4
2023-01-07T20:09:03.203Z,-28.2
2023-01-07T20:13:06.862Z,-28.3
2023-01-07T20:15:08.741Z,-28.3
2023-01-07T20:17:09.733Z,-28.3
2023-01-07T20:19:11.741Z,-28.5
2023-01-07T20:21:13.431Z,-28.7
2023-01-07T20:23:14.572Z,-28.2
2023-01-07T20:25:15.922Z,-28.4
2023-01-07T20:27:17.644Z,-28.3
2023-01-07T20:29:19.365Z,-28.4
2023-01-07T20:31:20.863Z,-28.4
2023-01-07T20:33:22.719Z,-28.4
2023-01-07T20:35:24.592Z,-28.3
2023-01-07T20:41:29.202Z,-28.6
2023-01-07T20:43:30.469Z,-28.2
2023-01-07T20:45:32.061Z,-28.3
2023-01-07T20:47:33.938Z,-28.3
2023-01-07T20:51:36.207Z,-28.3
2023-01-07T20:55:39.007Z,-28.5
2023-01-07T20:57:40.309Z,-28.5
2023-01-07T20:59:41.969Z,-28
2023-01-07T21:01:43.246Z,-28.2
2023-01-07T21:03:45.179Z,-28.3
2023-01-07T21:05:46.193Z,-28.4
2023-01-07T21:07:48.056Z,-28.4
2023-01-07T21:09:48.988Z,-28.4
2023-01-07T21:11:50.486Z,-28
2023-01-07T21:13:52.130Z,-28.4
2023-01-07T21:15:53.387Z,-28.2
2023-01-07T21:17:55.292Z,-28.2
2023-01-07T21:19:56.792Z,-28.4
2023-01-07T21:21:57.969Z,-28.3
2023-01-07T21:23:59.455Z,-28.3
2023-01-07T21:28:02.184Z,-28.4
2023-01-07T21:30:05.927Z,-28.2
2023-01-07T21:32:05.018Z,-28.4
2023-01-07T21:34:06.830Z,-28.3
2023-01-07T21:40:11.292Z,-28.6
2023-01-07T21:42:12.253Z,-28.2
2023-01-07T21:44:14.307Z,-28.5
2023-01-07T21:46:15.889Z,-28
2023-01-07T21:48:17.502Z,-28.1
2023-01-07T21:50:19.183Z,-28.3
2023-01-07T21:52:20.773Z,-28.4
2023-01-07T21:54:22.220Z,-28.2
2023-01-07T21:56:23.889Z,-28.4
2023-01-07T21:58:25.171Z,-28.4
2023-01-07T22:00:27.015Z,-28.2
2023-01-07T22:02:28.446Z,-28
2023-01-07T22:04:29.894Z,-28.4
2023-01-07T22:06:31.419Z,-28.3
2023-01-07T22:08:32.959Z,-28.4
2023-01-07T22:10:34.926Z,-28.5
2023-01-07T22:12:36.194Z,-28.4
2023-01-07T22:14:37.759Z,-28.5
2023-01-07T22:16:39.327Z,-28.2
2023-01-07T22:18:40.454Z,-28.3
2023-01-07T22:22:43.889Z,-28.5
2023-01-07T22:24:45.682Z,-28.5
2023-01-07T22:26:47.522Z,-28.3
2023-01-07T22:28:49.112Z,-28.5
2023-01-07T22:30:50.222Z,-28.3
2023-01-07T22:32:51.503Z,-28.5
2023-01-07T22:36:54.318Z,-28.4
2023-01-07T22:38:56.145Z,-28.5
2023-01-07T22:40:58.001Z,-28
2023-01-07T22:42:59.753Z,-28.6
2023-01-07T22:45:00.814Z,-28.5
2023-01-07T22:47:02.624Z,-28.3
2023-01-07T22:49:04.588Z,-28.2
2023-01-07T22:51:06.106Z,-28.4
2023-01-07T22:53:07.830Z,-28.3
2023-01-07T22:55:09.305Z,-28.4
2023-01-07T22:59:12.396Z,-28.5
2023-01-07T23:01:13.458Z,-28.5
2023-01-07T23:03:15.126Z,-28.6
2023-01-07T23:05:16.499Z,-28.6
2023-01-07T23:07:17.726Z,-28.4
2023-01-07T23:09:19.387Z,-28.5
2023-01-07T23:11:21.252Z,-28.4
2023-01-07T23:13:23.068Z,-28.2
2023-01-07T23:15:24.720Z,-28.2
2023-01-07T23:17:26.714Z,-28.3
2023-01-07T23:19:28.079Z,-28.6
2023-01-07T23:21:29.688Z,-28.4
2023-01-07T23:23:31.024Z,-28.2
2023-01-07T23:25:32.868Z,-28.4
2023-01-07T23:27:34.587Z,-28.4
2023-01-07T23:29:36.525Z,-28.3
2023-01-07T23:31:38.508Z,-28.4
2023-01-07T23:37:42.952Z,-28.5
2023-01-07T23:39:44.024Z,-28.3
2023-01-07T23:41:45.800Z,-28.4
2023-01-07T23:43:47.519Z,-28.6
2023-01-07T23:45:48.787Z,-28.3
2023-01-07T23:47:49.937Z,-28.4
2023-01-07T23:49:51.188Z,-28.5
2023-01-07T23:51:52.955Z,-28.4
2023-01-07T23:53:54.487Z,-28.4
2023-01-07T23:55:55.933Z,-28.5
2023-01-07T23:57:57.373Z,-28.4
2023-01-07T23:59:58.759Z,-28.4
